KSLB/SLB METAR and TAF weather

Enter ICAO airport designator
Station Type Date Time Source
KSLB METAR 2020/08/05 16:35 UTC NOAA

KSLB 051635Z AUTO 16009KT 10SM CLR 17/16 A3007 RMK AO2


Station Type Date Time Source
KSLB Decoded METAR 2020/08/05 16:35 UTC NOAA

Storm Lake, IA, United States (KSLB) 42-36N 095-14W
Aug 05, 2020 - 12:35 PM EDT / 2020.08.05 1635 UTC
Wind: from the SSE (160 degrees) at 10 MPH (9 KT):0
Visibility: 10 mile(s):0
Sky conditions: clear
Temperature: 62 F (17 C)
Dew Point: 60 F (16 C)
Relative Humidity: 93%
Pressure (altimeter): 30.07 in. Hg (1018 hPa)
ob: KSLB 051635Z AUTO 16009KT 10SM CLR 17/16 A3007 RMK AO2
cycle: 16

Station Type Date Time Source
KSLB TAF UTC NOAA

Error!

Example: see airport list